Lexington, NE

3:44 PM CST on December 12, 2019 (GMT -0600)
Kelly

Weather History for KLXN - November, 2019

Change the Weather History Date:

Thursday, November 14, 2019

  Actual Average Record
Temperature  
Mean Temperature 38 °F -  
Max Temperature 54 °F 48 °F 68 °F (2016)
Min Temperature 21 °F 24 °F -2 °F (2000)
Degree Days  
Heating Degree Days 28    
Moisture  
Dew Point 30 °F    
Average Humidity 76    
Maximum Humidity 97    
Minimum Humidity 46    
Precipitation  
Precipitation 0.00 in - - ()
Sea Level Pressure  
Sea Level Pressure 30.28 in    
Wind  
Wind Speed 7 mph (West)    
Max Wind Speed 13 mph    
Max Gust Speed 17 mph    
Visibility 10 miles    
Events      
Averages and records for this station are not official NWS values.
T = Trace of Precipitation, MM = Missing Value Source: NWS Daily Summary

Daily Weather History Graph

Daily Weather History Graph

Search for Another Location

Airport or City:

Astronomy

Nov. 14, 2019 Rise Set
Actual Time 7:24 AM CST 5:21 PM CST
Civil Twilight 6:55 AM CST 5:51 PM CST
Nautical Twilight 6:22 AM CST 6:24 PM CST
Astronomical Twilight 5:49 AM CST 6:56 PM CST
Moon 7:08 PM CST (11/14) 9:22 AM CST (11/14)
Length of Visible Light 10h 55m
Length of Day
9h 57m
Waning Gibbous, 95% of the Moon is Illuminated
Nov 14
Waning Gibbous
Nov 19
Last Quarter
Nov 26
New
Dec 4
First Quarter
Dec 11
Full

Hourly Weather History & Observations

Time (CST) Temp. Windchill Dew Point Humidity Pressure Visibility Wind Dir Wind Speed Gust Speed Precip Events Conditions
12:15 AM 28.2 °F 21.0 °F 26.4 °F 93% 30.19 in 10.0 mi West 6.9 mph - N/A   Clear
12:35 AM 28.2 °F 20.2 °F 27.0 °F 95% 30.21 in 10.0 mi West 8.1 mph - N/A   Mostly Cloudy
12:55 AM 29.1 °F 20.6 °F 27.7 °F 94% 30.22 in 10.0 mi WNW 9.2 mph - N/A   Overcast
1:15 AM 31.1 °F 23.7 °F 29.3 °F 93% 30.23 in 10.0 mi WNW 8.1 mph - N/A   Overcast
1:35 AM 32.0 °F 26.4 °F 30.0 °F 92% 30.24 in 10.0 mi WNW 5.8 mph - N/A   Overcast
1:55 AM 32.2 °F 24.4 °F 30.2 °F 92% 30.24 in 10.0 mi WNW 9.2 mph - N/A   Overcast
2:15 AM 32.4 °F 26.9 °F 30.6 °F 93% 30.25 in 10.0 mi NW 5.8 mph - N/A   Overcast
2:35 AM 32.4 °F 26.0 °F 30.2 °F 92% 30.26 in 10.0 mi NW 6.9 mph - N/A   Overcast
2:55 AM 31.6 °F 24.4 °F 29.1 °F 90% 30.26 in 10.0 mi NW 8.1 mph - N/A   Overcast
3:15 AM 29.8 °F 22.2 °F 27.1 °F 90% 30.27 in 10.0 mi WNW 8.1 mph - N/A   Mostly Cloudy
3:35 AM 31.1 °F 25.4 °F 29.3 °F 93% 30.27 in 10.0 mi West 5.8 mph - N/A   Overcast
3:55 AM 30.4 °F 24.5 °F 28.4 °F 92% 30.27 in 10.0 mi WNW 5.8 mph - N/A   Mostly Cloudy
4:15 AM 29.5 °F 22.5 °F 27.7 °F 93% 30.27 in 10.0 mi WNW 6.9 mph - N/A   Mostly Cloudy
4:35 AM 28.6 °F 22.4 °F 27.0 °F 94% 30.27 in 10.0 mi WNW 5.8 mph - N/A   Mostly Cloudy
4:55 AM 26.8 °F 17.7 °F 25.7 °F 96% 30.28 in 10.0 mi WNW 9.2 mph - N/A   Clear
5:15 AM 27.1 °F 19.7 °F 25.7 °F 94% 30.28 in 10.0 mi WNW 6.9 mph - N/A   Clear
5:35 AM 23.5 °F 15.4 °F 22.5 °F 96% 30.29 in 10.0 mi NW 6.9 mph - N/A   Clear
5:55 AM 24.6 °F 15.8 °F 23.7 °F 96% 30.30 in 10.0 mi NNW 8.1 mph - N/A   Clear
6:15 AM 23.7 °F 16.6 °F 22.6 °F 96% 30.30 in 10.0 mi NW 5.8 mph - N/A   Clear
6:35 AM 21.9 °F 17.2 °F 20.8 °F 96% 30.31 in 10.0 mi WNW 3.5 mph - N/A   Clear
6:55 AM 22.6 °F 15.3 °F 21.9 °F 97% 30.31 in 10.0 mi WNW 5.8 mph - N/A   Clear
7:15 AM 21.9 °F 14.5 °F 21.0 °F 96% 30.31 in 10.0 mi WNW 5.8 mph - N/A   Clear
7:35 AM 23.2 °F 14.1 °F 22.3 °F 96% 30.32 in 10.0 mi WNW 8.1 mph - N/A   Clear
7:55 AM 23.9 °F 16.8 °F 23.0 °F 96% 30.32 in 10.0 mi NW 5.8 mph - N/A   Clear
8:15 AM 25.5 °F 18.7 °F 24.8 °F 97% 30.33 in 10.0 mi WNW 5.8 mph - N/A   Clear
8:35 AM 28.4 °F 21.2 °F 27.3 °F 96% 30.34 in 10.0 mi WNW 6.9 mph - N/A   Clear
8:55 AM 30.7 °F 23.3 °F 28.8 °F 92% 30.34 in 10.0 mi WNW 8.1 mph - N/A   Clear
9:15 AM 32.2 °F 25.0 °F 30.0 °F 92% 30.34 in 10.0 mi WNW 8.1 mph - N/A   Clear
9:35 AM 34.2 °F 26.2 °F 30.9 °F 88% 30.34 in 10.0 mi WNW 10.4 mph - N/A   Clear
9:55 AM 36.3 °F 29.5 °F 31.8 °F 84% 30.34 in 10.0 mi WNW 9.2 mph - N/A   Clear
10:15 AM 38.1 °F 31.2 °F 32.0 °F 79% 30.34 in 10.0 mi WNW 10.4 mph - N/A   Clear
10:35 AM 39.7 °F 33.7 °F 32.4 °F 75% 30.35 in 10.0 mi West 9.2 mph - N/A   Clear
10:55 AM 41.7 °F 36.1 °F 32.4 °F 69% 30.35 in 10.0 mi WNW 9.2 mph - N/A   Clear
11:15 AM 43.7 °F 39.7 °F 32.5 °F 65% 30.35 in 10.0 mi WNW 6.9 mph - N/A   Clear
11:35 AM 45.5 °F 41.8 °F 32.4 °F 60% 30.35 in 10.0 mi WNW 6.9 mph - N/A   Clear
12:15 PM 48.2 °F - 32.0 °F 54% 30.34 in 10.0 mi NW 9.2 mph 17.3 mph N/A   Clear
12:35 PM 49.3 °F - 32.2 °F 52% 30.33 in 10.0 mi WNW 6.9 mph - N/A   Clear
12:55 PM 49.1 °F - 32.2 °F 52% 30.31 in 10.0 mi WNW 8.1 mph - N/A   Clear
1:15 PM 49.6 °F - 32.2 °F 51% 30.31 in 10.0 mi WNW 3.5 mph - N/A   Clear
1:35 PM 52.0 °F - 32.9 °F 48% 30.29 in 10.0 mi West 6.9 mph - N/A   Clear
1:55 PM 51.8 °F - 32.7 °F 48% 30.28 in 10.0 mi WNW 3.5 mph - N/A   Clear
2:35 PM 53.4 °F - 33.6 °F 47% 30.27 in 10.0 mi WSW 8.1 mph - N/A   Clear
2:55 PM 53.1 °F - 33.6 °F 48% 30.26 in 10.0 mi West 6.9 mph - N/A   Clear
3:15 PM 54.0 °F - 33.6 °F 46% 30.26 in 10.0 mi West 9.2 mph - N/A   Clear
3:35 PM 53.8 °F - 33.6 °F 46% 30.26 in 10.0 mi WSW 4.6 mph - N/A   Clear
3:55 PM 54.1 °F - 33.8 °F 46% 30.26 in 10.0 mi WSW 5.8 mph - N/A   Clear
4:15 PM 54.3 °F - 33.6 °F 46% 30.26 in 10.0 mi West 9.2 mph - N/A   Clear
4:35 PM 53.6 °F - 33.8 °F 47% 30.26 in 10.0 mi WSW 4.6 mph - N/A   Clear
4:55 PM 51.6 °F - 32.9 °F 49% 30.26 in 10.0 mi WSW 3.5 mph - N/A   Clear
5:15 PM 49.6 °F - 32.4 °F 51% 30.26 in 10.0 mi SW 4.6 mph - N/A   Clear
5:35 PM 45.9 °F 43.6 °F 31.8 °F 58% 30.27 in 10.0 mi SSW 4.6 mph - N/A   Clear
5:55 PM 43.9 °F 40.5 °F 31.1 °F 61% 30.27 in 10.0 mi South 5.8 mph - N/A   Clear
6:15 PM 44.1 °F 41.5 °F 31.8 °F 62% 30.27 in 10.0 mi South 4.6 mph - N/A   Clear
6:35 PM 42.3 °F 39.4 °F 31.5 °F 66% 30.27 in 10.0 mi South 4.6 mph - N/A   Clear
6:55 PM 41.4 °F 37.6 °F 31.6 °F 68% 30.27 in 10.0 mi South 5.8 mph - N/A   Clear
7:15 PM 38.8 °F 33.8 °F 30.2 °F 71% 30.27 in 10.0 mi SSE 6.9 mph - N/A   Clear
7:35 PM 37.0 °F 32.4 °F 29.7 °F 75% 30.27 in 10.0 mi South 5.8 mph - N/A   Clear
7:55 PM 37.0 °F 32.4 °F 29.8 °F 75% 30.27 in 10.0 mi South 5.8 mph - N/A   Clear
8:15 PM 36.9 °F 32.2 °F 29.8 °F 76% 30.27 in 10.0 mi South 5.8 mph - N/A   Clear
8:35 PM 37.0 °F 32.4 °F 29.8 °F 75% 30.27 in 10.0 mi South 5.8 mph - N/A   Clear
8:55 PM 36.7 °F 31.2 °F 29.8 °F 76% 30.27 in 10.0 mi South 6.9 mph - N/A   Clear
9:15 PM 37.9 °F 34.4 °F 30.4 °F 74% 30.27 in 10.0 mi South 4.6 mph - N/A   Clear
9:35 PM 36.1 °F 33.5 °F 30.0 °F 78% 30.27 in 10.0 mi South 3.5 mph - N/A   Clear
9:55 PM 36.3 °F 32.5 °F 29.5 °F 76% 30.27 in 10.0 mi South 4.6 mph - N/A   Clear
10:15 PM 35.2 °F 28.8 °F 29.3 °F 79% 30.27 in 10.0 mi South 8.1 mph - N/A   Clear
10:35 PM 37.2 °F 31.2 °F 30.6 °F 77% 30.27 in 10.0 mi South 8.1 mph - N/A   Clear
10:55 PM 36.9 °F 30.7 °F 30.4 °F 77% 30.27 in 10.0 mi South 8.1 mph - N/A   Clear
11:15 PM 36.9 °F 31.4 °F 30.2 °F 77% 30.27 in 10.0 mi South 6.9 mph - N/A   Clear
11:35 PM 36.1 °F 29.9 °F 30.2 °F 79% 30.27 in 10.0 mi SSW 8.1 mph - N/A   Clear
11:55 PM 40.1 °F 32.7 °F 31.1 °F 70% 30.27 in 10.0 mi SSW 12.7 mph 17.3 mph N/A   Clear